PWSweather.com
Personal Weather Stations
Station Observations
SHAHALMS1
Eftra, Falkenberg, HA

EftraFalkenberg, HA

Lat: 56.85, Lon: 12.65

Elevation: 140

Station Type:

http://hem.passagen.se/risarp101

High Low Average
Temperature 61.7°F16.5°C 36.0°F2.2°C 49.6°F9.8°C
Dew Point 35.8°F2.1°C 23.6°F-4.7°C 29.4°F-1.4°C
Winds 9.2 mph 14.8 kmh Calm Calm 3.0 mph S4.8 kmh S
Wind Gusts 12.5 mph20.1 kmh -- 7.0 mph11.3 kmh
Humidity 64% 33% 47%
Pressure 30.68 in1038.9 mb 30.57 in1035.2 mb -
Precipitation 0.00 in0.0 mm - -
Hour Temp Dew Point Humidity Winds Wind Gusts Pressure Precip Precip Rate Daily Precip Total
12:00 AM 39.7°F4.3°C 25.3°F-3.7°C 56% 0.8 mph E1.3 kmh E 7.5 mph12.1 kmh 30.63 in1037.3 mb 0.00 in0.0 mm 0.00 in0.0 mm 0.00 in0.0 mm
12:15 AM 39.7°F4.3°C 25.7°F-3.5°C 57% 0.6 mph E1.0 kmh E 7.9 mph12.7 kmh 30.63 in1037.3 mb 0.00 in0.0 mm 0.00 in0.0 mm 0.00 in0.0 mm
12:30 AM 39.7°F4.3°C 25.7°F-3.5°C 57% 2.8 mph E4.5 kmh E 8.6 mph13.8 kmh 30.63 in1037.3 mb 0.00 in0.0 mm 0.00 in0.0 mm 0.00 in0.0 mm
12:45 AM 39.7°F4.3°C 26.2°F-3.2°C 58% 6.0 mph E9.7 kmh E 10.0 mph16.1 kmh 30.63 in1037.3 mb 0.00 in0.0 mm 0.00 in0.0 mm 0.00 in0.0 mm
01:00 AM 39.7°F4.3°C 26.2°F-3.2°C 58% 6.9 mph ESE11.1 kmh ESE 10.4 mph16.7 kmh 30.63 in1037.3 mb 0.00 in0.0 mm 0.00 in0.0 mm 0.00 in0.0 mm
01:15 AM 39.4°F4.1°C 26.2°F-3.2°C 59% 0.2 mph E0.3 kmh E 6.1 mph9.8 kmh 30.63 in1037.3 mb 0.00 in0.0 mm 0.00 in0.0 mm 0.00 in0.0 mm
01:30 AM 39.2°F4.0°C 26.1°F-3.3°C 59% 3.9 mph E6.3 kmh E 9.3 mph15.0 kmh 30.63 in1037.3 mb 0.00 in0.0 mm 0.00 in0.0 mm 0.00 in0.0 mm
01:45 AM 39.2°F4.0°C 26.1°F-3.3°C 59% 8.4 mph SE13.5 kmh SE 11.8 mph19.0 kmh 30.63 in1037.3 mb 0.00 in0.0 mm 0.00 in0.0 mm 0.00 in0.0 mm
02:01 AM 39.2°F4.0°C 26.1°F-3.3°C 59% 9.2 mph SE14.8 kmh SE 12.5 mph20.1 kmh 30.63 in1037.3 mb 0.00 in0.0 mm 0.00 in0.0 mm 0.00 in0.0 mm
02:15 AM 39.2°F4.0°C 25.6°F-3.6°C 58% 8.0 mph ESE12.9 kmh ESE 11.1 mph17.9 kmh 30.63 in1037.3 mb 0.00 in0.0 mm 0.00 in0.0 mm 0.00 in0.0 mm
02:30 AM 39.2°F4.0°C 25.6°F-3.6°C 58% 7.9 mph SE12.7 kmh SE 11.5 mph18.5 kmh 30.63 in1037.3 mb 0.00 in0.0 mm 0.00 in0.0 mm 0.00 in0.0 mm
02:45 AM 39.0°F3.9°C 25.5°F-3.6°C 58% 7.8 mph SE12.6 kmh SE 12.2 mph19.6 kmh 30.63 in1037.3 mb 0.00 in0.0 mm 0.00 in0.0 mm 0.00 in0.0 mm
03:00 AM 38.8°F3.8°C 25.7°F-3.5°C 59% 5.7 mph SE9.2 kmh SE 8.6 mph13.8 kmh 30.63 in1037.3 mb 0.00 in0.0 mm 0.00 in0.0 mm 0.00 in0.0 mm
03:15 AM 38.7°F3.7°C 25.6°F-3.6°C 59% 1.5 mph SE2.4 kmh SE 7.5 mph12.1 kmh 30.63 in1037.3 mb 0.00 in0.0 mm 0.00 in0.0 mm 0.00 in0.0 mm
03:30 AM 38.1°F3.4°C 25.0°F-3.9°C 59% 2.2 mph ESE3.5 kmh ESE 9.7 mph15.6 kmh 30.63 in1037.3 mb 0.00 in0.0 mm 0.00 in0.0 mm 0.00 in0.0 mm
03:45 AM 37.8°F3.2°C 24.7°F-4.1°C 59% 1.9 mph SE3.1 kmh SE 8.9 mph14.3 kmh 30.63 in1037.3 mb 0.00 in0.0 mm 0.00 in0.0 mm 0.00 in0.0 mm
04:00 AM 37.8°F3.2°C 25.1°F-3.8°C 60% 2.3 mph E3.7 kmh E 7.9 mph12.7 kmh 30.63 in1037.3 mb 0.00 in0.0 mm 0.00 in0.0 mm 0.00 in0.0 mm
04:15 AM 37.6°F3.1°C 24.9°F-3.9°C 60% Calm Calm -- 30.63 in1037.3 mb 0.00 in0.0 mm 0.00 in0.0 mm 0.00 in0.0 mm
04:30 AM 37.0°F2.8°C 24.4°F-4.2°C 60% Calm Calm 2.5 mph4.0 kmh 30.63 in1037.3 mb 0.00 in0.0 mm 0.00 in0.0 mm 0.00 in0.0 mm
04:45 AM 36.1°F2.3°C 23.6°F-4.7°C 60% 0.2 mph E0.3 kmh E 4.3 mph6.9 kmh 30.63 in1037.3 mb 0.00 in0.0 mm 0.00 in0.0 mm 0.00 in0.0 mm
05:00 AM 36.0°F2.2°C 23.8°F-4.6°C 61% 0.3 mph E0.5 kmh E 5.4 mph8.7 kmh 30.63 in1037.3 mb 0.00 in0.0 mm 0.00 in0.0 mm 0.00 in0.0 mm
05:15 AM 36.1°F2.3°C 24.0°F-4.4°C 61% 0.1 mph E0.2 kmh E 3.2 mph5.1 kmh 30.63 in1037.3 mb 0.00 in0.0 mm 0.00 in0.0 mm 0.00 in0.0 mm
05:30 AM 36.5°F2.5°C 24.7°F-4.1°C 62% 0.1 mph E0.2 kmh E 2.1 mph3.4 kmh 30.63 in1037.3 mb 0.00 in0.0 mm 0.00 in0.0 mm 0.00 in0.0 mm
05:45 AM 36.9°F2.7°C 25.0°F-3.9°C 62% Calm Calm -- 30.63 in1037.3 mb 0.00 in0.0 mm 0.00 in0.0 mm 0.00 in0.0 mm
06:00 AM 37.4°F3.0°C 25.9°F-3.4°C 63% Calm Calm 1.4 mph2.3 kmh 30.63 in1037.3 mb 0.00 in0.0 mm 0.00 in0.0 mm 0.00 in0.0 mm
06:15 AM 38.5°F3.6°C 27.0°F-2.8°C 63% 2.9 mph E4.7 kmh E 10.4 mph16.7 kmh 30.63 in1037.3 mb 0.00 in0.0 mm 0.00 in0.0 mm 0.00 in0.0 mm
06:30 AM 39.4°F4.1°C 27.8°F-2.3°C 63% 2.3 mph E3.7 kmh E 8.9 mph14.3 kmh 30.63 in1037.3 mb 0.00 in0.0 mm 0.00 in0.0 mm 0.00 in0.0 mm
06:45 AM 40.6°F4.8°C 29.0°F-1.7°C 63% Calm Calm -- 30.66 in1038.3 mb 0.00 in0.0 mm 0.00 in0.0 mm 0.00 in0.0 mm
07:00 AM 42.3°F5.7°C 30.9°F-0.6°C 64% 0.5 mph E0.8 kmh E 8.6 mph13.8 kmh 30.66 in1038.3 mb 0.00 in0.0 mm 0.00 in0.0 mm 0.00 in0.0 mm
07:15 AM 43.7°F6.5°C 31.9°F-0.1°C 63% Calm Calm -- 30.66 in1038.3 mb 0.00 in0.0 mm 0.00 in0.0 mm 0.00 in0.0 mm
07:30 AM 45.3°F7.4°C 33.5°F0.8°C 63% Calm Calm -- 30.66 in1038.3 mb 0.00 in0.0 mm 0.00 in0.0 mm 0.00 in0.0 mm
07:45 AM 47.3°F8.5°C 34.5°F1.4°C 61% 5.3 mph ESE8.5 kmh ESE 9.7 mph15.6 kmh 30.68 in1038.9 mb 0.00 in0.0 mm 0.00 in0.0 mm 0.00 in0.0 mm
08:00 AM 48.7°F9.3°C 35.0°F1.7°C 59% 0.4 mph E0.6 kmh E 6.4 mph10.3 kmh 30.66 in1038.3 mb 0.00 in0.0 mm 0.00 in0.0 mm 0.00 in0.0 mm
08:15 AM 50.0°F10.0°C 35.4°F1.9°C 57% 0.6 mph E1.0 kmh E 5.4 mph8.7 kmh 30.66 in1038.3 mb 0.00 in0.0 mm 0.00 in0.0 mm 0.00 in0.0 mm
08:30 AM 50.9°F10.5°C 34.4°F1.3°C 53% 0.3 mph N0.5 kmh N 5.7 mph9.2 kmh 30.66 in1038.3 mb 0.00 in0.0 mm 0.00 in0.0 mm 0.00 in0.0 mm
08:45 AM 52.0°F11.1°C 34.9°F1.6°C 52% 0.8 mph NW1.3 kmh NW 3.9 mph6.3 kmh 30.66 in1038.3 mb 0.00 in0.0 mm 0.00 in0.0 mm 0.00 in0.0 mm
09:00 AM 52.7°F11.5°C 35.1°F1.7°C 51% 0.6 mph NW1.0 kmh NW 5.7 mph9.2 kmh 30.66 in1038.3 mb 0.00 in0.0 mm 0.00 in0.0 mm 0.00 in0.0 mm
09:15 AM 53.6°F12.0°C 35.4°F1.9°C 50% 1.0 mph WNW1.6 kmh WNW 6.1 mph9.8 kmh 30.63 in1037.3 mb 0.00 in0.0 mm 0.00 in0.0 mm 0.00 in0.0 mm
09:30 AM 54.3°F12.4°C 35.5°F1.9°C 49% 1.7 mph W2.7 kmh W 7.5 mph12.1 kmh 30.66 in1038.3 mb 0.00 in0.0 mm 0.00 in0.0 mm 0.00 in0.0 mm
09:45 AM 55.0°F12.8°C 35.7°F2.1°C 48% 2.9 mph NW4.7 kmh NW 8.6 mph13.8 kmh 30.68 in1038.9 mb 0.00 in0.0 mm 0.00 in0.0 mm 0.00 in0.0 mm
10:01 AM 55.8°F13.2°C 35.8°F2.1°C 47% 3.1 mph NW5.0 kmh NW 9.7 mph15.6 kmh 30.66 in1038.3 mb 0.00 in0.0 mm 0.00 in0.0 mm 0.00 in0.0 mm
10:15 AM 56.3°F13.5°C 35.8°F2.1°C 46% 3.6 mph W5.8 kmh W 10.0 mph16.1 kmh 30.66 in1038.3 mb 0.00 in0.0 mm 0.00 in0.0 mm 0.00 in0.0 mm
10:30 AM 56.7°F13.7°C 34.4°F1.3°C 43% 3.6 mph NW5.8 kmh NW 10.4 mph16.7 kmh 30.66 in1038.3 mb 0.00 in0.0 mm 0.00 in0.0 mm 0.00 in0.0 mm
10:45 AM 57.0°F13.9°C 33.5°F0.8°C 41% 4.1 mph NW6.6 kmh NW 11.5 mph18.5 kmh 30.66 in1038.3 mb 0.00 in0.0 mm 0.00 in0.0 mm 0.00 in0.0 mm
11:00 AM 57.2°F14.0°C 32.4°F0.2°C 39% 3.7 mph W6.0 kmh W 8.6 mph13.8 kmh 30.66 in1038.3 mb 0.00 in0.0 mm 0.00 in0.0 mm 0.00 in0.0 mm
11:15 AM 57.9°F14.4°C 32.4°F0.2°C 38% 4.4 mph W7.1 kmh W 9.7 mph15.6 kmh 30.66 in1038.3 mb 0.00 in0.0 mm 0.00 in0.0 mm 0.00 in0.0 mm
11:30 AM 57.9°F14.4°C 30.4°F-0.9°C 35% 4.9 mph WNW7.9 kmh WNW 10.4 mph16.7 kmh 30.66 in1038.3 mb 0.00 in0.0 mm 0.00 in0.0 mm 0.00 in0.0 mm
11:45 AM 58.1°F14.5°C 30.6°F-0.8°C 35% 5.0 mph W8.0 kmh W 10.0 mph16.1 kmh 30.66 in1038.3 mb 0.00 in0.0 mm 0.00 in0.0 mm 0.00 in0.0 mm
12:00 PM 58.1°F14.5°C 29.8°F-1.2°C 34% 4.7 mph W7.6 kmh W 10.4 mph16.7 kmh 30.66 in1038.3 mb 0.00 in0.0 mm 0.00 in0.0 mm 0.00 in0.0 mm
12:15 PM 58.1°F14.5°C 29.8°F-1.2°C 34% 5.3 mph WNW8.5 kmh WNW 10.0 mph16.1 kmh 30.66 in1038.3 mb 0.00 in0.0 mm 0.00 in0.0 mm 0.00 in0.0 mm
12:30 PM 58.3°F14.6°C 30.0°F-1.1°C 34% 6.0 mph W9.7 kmh W 11.8 mph19.0 kmh 30.66 in1038.3 mb 0.00 in0.0 mm 0.00 in0.0 mm 0.00 in0.0 mm
12:45 PM 58.6°F14.8°C 30.3°F-0.9°C 34% 5.2 mph W8.4 kmh W 11.8 mph19.0 kmh 30.66 in1038.3 mb 0.00 in0.0 mm 0.00 in0.0 mm 0.00 in0.0 mm
01:00 PM 58.5°F14.7°C 30.2°F-1.0°C 34% 5.6 mph WNW9.0 kmh WNW 11.5 mph18.5 kmh 30.63 in1037.3 mb 0.00 in0.0 mm 0.00 in0.0 mm 0.00 in0.0 mm
01:15 PM 58.3°F14.6°C 30.7°F-0.7°C 35% 6.5 mph W10.5 kmh W 12.2 mph19.6 kmh 30.66 in1038.3 mb 0.00 in0.0 mm 0.00 in0.0 mm 0.00 in0.0 mm
01:30 PM 58.8°F14.9°C 31.9°F-0.1°C 36% 5.5 mph W8.9 kmh W 10.4 mph16.7 kmh 30.63 in1037.3 mb 0.00 in0.0 mm 0.00 in0.0 mm 0.00 in0.0 mm
01:45 PM 58.8°F14.9°C 32.6°F0.3°C 37% 5.6 mph W9.0 kmh W 11.8 mph19.0 kmh 30.63 in1037.3 mb 0.00 in0.0 mm 0.00 in0.0 mm 0.00 in0.0 mm
02:00 PM 59.2°F15.1°C 32.9°F0.5°C 37% 6.5 mph W10.5 kmh W 11.5 mph18.5 kmh 30.63 in1037.3 mb 0.00 in0.0 mm 0.00 in0.0 mm 0.00 in0.0 mm
02:15 PM 59.2°F15.1°C 32.9°F0.5°C 37% 5.3 mph W8.5 kmh W 10.4 mph16.7 kmh 30.63 in1037.3 mb 0.00 in0.0 mm 0.00 in0.0 mm 0.00 in0.0 mm
02:30 PM 59.4°F15.2°C 33.7°F0.9°C 38% 6.2 mph W10.0 kmh W 12.5 mph20.1 kmh 30.63 in1037.3 mb 0.00 in0.0 mm 0.00 in0.0 mm 0.00 in0.0 mm
02:45 PM 59.5°F15.3°C 33.2°F0.7°C 37% 5.5 mph W8.9 kmh W 12.2 mph19.6 kmh 30.60 in1036.2 mb 0.00 in0.0 mm 0.00 in0.0 mm 0.00 in0.0 mm
03:00 PM 59.9°F15.5°C 33.5°F0.8°C 37% 5.1 mph W8.2 kmh W 10.0 mph16.1 kmh 30.63 in1037.3 mb 0.00 in0.0 mm 0.00 in0.0 mm 0.00 in0.0 mm
03:15 PM 60.3°F15.7°C 34.5°F1.4°C 38% 5.8 mph W9.3 kmh W 10.7 mph17.2 kmh 30.60 in1036.2 mb 0.00 in0.0 mm 0.00 in0.0 mm 0.00 in0.0 mm
03:30 PM 60.6°F15.9°C 34.2°F1.2°C 37% 4.5 mph W7.2 kmh W 10.4 mph16.7 kmh 30.60 in1036.2 mb 0.00 in0.0 mm 0.00 in0.0 mm 0.00 in0.0 mm
03:45 PM 61.0°F16.1°C 34.5°F1.4°C 37% 3.8 mph W6.1 kmh W 9.7 mph15.6 kmh 30.60 in1036.2 mb 0.00 in0.0 mm 0.00 in0.0 mm 0.00 in0.0 mm
04:00 PM 61.3°F16.3°C 34.1°F1.2°C 36% 3.5 mph W5.6 kmh W 7.9 mph12.7 kmh 30.57 in1035.2 mb 0.00 in0.0 mm 0.00 in0.0 mm 0.00 in0.0 mm
04:15 PM 61.7°F16.5°C 34.5°F1.4°C 36% 2.9 mph W4.7 kmh W 6.8 mph10.9 kmh 30.57 in1035.2 mb 0.00 in0.0 mm 0.00 in0.0 mm 0.00 in0.0 mm
04:30 PM 61.7°F16.5°C 33.7°F0.9°C 35% 2.7 mph W4.3 kmh W 7.9 mph12.7 kmh 30.60 in1036.2 mb 0.00 in0.0 mm 0.00 in0.0 mm 0.00 in0.0 mm
04:45 PM 61.7°F16.5°C 33.7°F0.9°C 35% 2.9 mph WNW4.7 kmh WNW 6.8 mph10.9 kmh 30.63 in1037.3 mb 0.00 in0.0 mm 0.00 in0.0 mm 0.00 in0.0 mm
05:00 PM 61.5°F16.4°C 32.9°F0.5°C 34% 5.0 mph NW8.0 kmh NW 12.2 mph19.6 kmh 30.60 in1036.2 mb 0.00 in0.0 mm 0.00 in0.0 mm 0.00 in0.0 mm
05:15 PM 61.0°F16.1°C 31.6°F-0.2°C 33% 4.3 mph NW6.9 kmh NW 10.4 mph16.7 kmh 30.60 in1036.2 mb 0.00 in0.0 mm 0.00 in0.0 mm 0.00 in0.0 mm
05:30 PM 60.4°F15.8°C 31.2°F-0.4°C 33% 2.2 mph W3.5 kmh W 9.3 mph15.0 kmh 30.60 in1036.2 mb 0.00 in0.0 mm 0.00 in0.0 mm 0.00 in0.0 mm
05:45 PM 59.4°F15.2°C 30.2°F-1.0°C 33% 5.7 mph NW9.2 kmh NW 10.4 mph16.7 kmh 30.60 in1036.2 mb 0.00 in0.0 mm 0.00 in0.0 mm 0.00 in0.0 mm
06:01 PM 57.9°F14.4°C 29.0°F-1.7°C 33% 6.9 mph NW11.1 kmh NW 11.8 mph19.0 kmh 30.60 in1036.2 mb 0.00 in0.0 mm 0.00 in0.0 mm 0.00 in0.0 mm
06:15 PM 57.0°F13.9°C 28.2°F-2.1°C 33% 3.1 mph NW5.0 kmh NW 7.9 mph12.7 kmh 30.60 in1036.2 mb 0.00 in0.0 mm 0.00 in0.0 mm 0.00 in0.0 mm
06:30 PM 56.1°F13.4°C 27.4°F-2.6°C 33% 1.2 mph NW1.9 kmh NW 4.7 mph7.6 kmh 30.60 in1036.2 mb 0.00 in0.0 mm 0.00 in0.0 mm 0.00 in0.0 mm
06:45 PM 55.4°F13.0°C 26.7°F-2.9°C 33% 0.8 mph NW1.3 kmh NW 5.4 mph8.7 kmh 30.60 in1036.2 mb 0.00 in0.0 mm 0.00 in0.0 mm 0.00 in0.0 mm
07:00 PM 54.7°F12.6°C 26.1°F-3.3°C 33% 0.2 mph W0.3 kmh W 3.9 mph6.3 kmh 30.60 in1036.2 mb 0.00 in0.0 mm 0.00 in0.0 mm 0.00 in0.0 mm
07:15 PM 53.6°F12.0°C 25.9°F-3.4°C 34% 0.4 mph NW0.6 kmh NW 4.7 mph7.6 kmh 30.60 in1036.2 mb 0.00 in0.0 mm 0.00 in0.0 mm 0.00 in0.0 mm
07:30 PM 52.7°F11.5°C 26.5°F-3.1°C 36% 0.5 mph W0.8 kmh W 5.4 mph8.7 kmh 30.60 in1036.2 mb 0.00 in0.0 mm 0.00 in0.0 mm 0.00 in0.0 mm
07:45 PM 51.8°F11.0°C 27.0°F-2.8°C 38% Calm Calm -- 30.60 in1036.2 mb 0.00 in0.0 mm 0.00 in0.0 mm 0.00 in0.0 mm
08:00 PM 51.1°F10.6°C 27.0°F-2.8°C 39% 0.1 mph WNW0.2 kmh WNW 3.6 mph5.8 kmh 30.60 in1036.2 mb 0.00 in0.0 mm 0.00 in0.0 mm 0.00 in0.0 mm
08:15 PM 50.5°F10.3°C 27.7°F-2.4°C 41% 0.3 mph W0.5 kmh W 4.3 mph6.9 kmh 30.60 in1036.2 mb 0.00 in0.0 mm 0.00 in0.0 mm 0.00 in0.0 mm
08:30 PM 50.0°F10.0°C 27.8°F-2.3°C 42% 0.3 mph W0.5 kmh W 4.7 mph7.6 kmh 30.60 in1036.2 mb 0.00 in0.0 mm 0.00 in0.0 mm 0.00 in0.0 mm
08:45 PM 49.6°F9.8°C 28.6°F-1.9°C 44% 0.3 mph W0.5 kmh W 4.3 mph6.9 kmh 30.60 in1036.2 mb 0.00 in0.0 mm 0.00 in0.0 mm 0.00 in0.0 mm
09:00 PM 49.1°F9.5°C 28.7°F-1.8°C 45% 0.4 mph W0.6 kmh W 3.6 mph5.8 kmh 30.60 in1036.2 mb 0.00 in0.0 mm 0.00 in0.0 mm 0.00 in0.0 mm
09:15 PM 48.9°F9.4°C 29.0°F-1.7°C 46% 0.1 mph W0.2 kmh W 1.4 mph2.3 kmh 30.60 in1036.2 mb 0.00 in0.0 mm 0.00 in0.0 mm 0.00 in0.0 mm
09:30 PM 48.6°F9.2°C 28.7°F-1.8°C 46% Calm Calm -- 30.60 in1036.2 mb 0.00 in0.0 mm 0.00 in0.0 mm 0.00 in0.0 mm
09:45 PM 48.0°F8.9°C 28.2°F-2.1°C 46% Calm Calm -- 30.60 in1036.2 mb 0.00 in0.0 mm 0.00 in0.0 mm 0.00 in0.0 mm
10:00 PM 48.2°F9.0°C 28.4°F-2.0°C 46% Calm Calm -- 30.60 in1036.2 mb 0.00 in0.0 mm 0.00 in0.0 mm 0.00 in0.0 mm
10:15 PM 48.0°F8.9°C 27.7°F-2.4°C 45% Calm Calm -- 30.60 in1036.2 mb 0.00 in0.0 mm 0.00 in0.0 mm 0.00 in0.0 mm
10:30 PM 46.9°F8.3°C 26.7°F-2.9°C 45% Calm Calm -- 30.60 in1036.2 mb 0.00 in0.0 mm 0.00 in0.0 mm 0.00 in0.0 mm
10:45 PM 45.9°F7.7°C 25.7°F-3.5°C 45% Calm Calm -- 30.60 in1036.2 mb 0.00 in0.0 mm 0.00 in0.0 mm 0.00 in0.0 mm
11:00 PM 44.4°F6.9°C 24.9°F-3.9°C 46% Calm Calm -- 30.60 in1036.2 mb 0.00 in0.0 mm 0.00 in0.0 mm 0.00 in0.0 mm
11:15 PM 43.3°F6.3°C 24.4°F-4.2°C 47% Calm Calm -- 30.60 in1036.2 mb 0.00 in0.0 mm 0.00 in0.0 mm 0.00 in0.0 mm
11:30 PM 42.1°F5.6°C 24.3°F-4.3°C 49% Calm Calm -- 30.60 in1036.2 mb 0.00 in0.0 mm 0.00 in0.0 mm 0.00 in0.0 mm
11:45 PM 41.0°F5.0°C 24.2°F-4.3°C 51% Calm Calm -- 30.57 in1035.2 mb 0.00 in0.0 mm 0.00 in0.0 mm 0.00 in0.0 mm